Terminal Aerodrome Forecast
Issued by NWS

Home | Current Version | Previous Version | Text Only | Print | Product List | Glossary On
Versions: 1 2 3 4 5 6 7 8 9 10 11 12 13 14 15 16 17 18 19 20 21
000
FTUS41 KCAR 220545
TAFBHB
TAF
KBHB 220545Z 2206/2306 19009KT P6SM SCT003 BKN100
     FM220700 18007KT P6SM SCT020 BKN035
     FM221000 19008KT 6SM BR BKN010
     FM221600 22008KT P6SM SCT015 BKN035
     FM222100 26006KT P6SM BKN045
      AMD LTD TO CLD VIS AND WIND=

USA.gov is the U.S. government's official web portal to all federal, state and local government web resources and services.